sensor_id;sensor_type;location;lat;lon;timestamp;temperature;humidity
17080;DHT22;8655;57.106;-2.088;2022-07-24T00:01:30;22.20;63.10
17080;DHT22;8655;57.106;-2.088;2022-07-24T00:03:55;22.10;63.00
17080;DHT22;8655;57.106;-2.088;2022-07-24T00:06:21;22.20;63.10
17080;DHT22;8655;57.106;-2.088;2022-07-24T00:08:47;22.20;63.90
17080;DHT22;8655;57.106;-2.088;2022-07-24T00:11:13;22.20;63.20
17080;DHT22;8655;57.106;-2.088;2022-07-24T00:13:39;22.20;63.20
17080;DHT22;8655;57.106;-2.088;2022-07-24T00:16:05;22.20;63.10
17080;DHT22;8655;57.106;-2.088;2022-07-24T00:18:31;22.20;63.20
17080;DHT22;8655;57.106;-2.088;2022-07-24T00:20:57;22.20;63.20
17080;DHT22;8655;57.106;-2.088;2022-07-24T00:23:24;22.20;63.30
17080;DHT22;8655;57.106;-2.088;2022-07-24T00:25:50;22.20;63.20
17080;DHT22;8655;57.106;-2.088;2022-07-24T00:28:16;22.20;63.20
17080;DHT22;8655;57.106;-2.088;2022-07-24T00:30:42;22.20;63.20
17080;DHT22;8655;57.106;-2.088;2022-07-24T00:33:08;22.20;63.20
17080;DHT22;8655;57.106;-2.088;2022-07-24T00:35:34;22.20;63.20
17080;DHT22;8655;57.106;-2.088;2022-07-24T00:38:00;22.20;63.90
17080;DHT22;8655;57.106;-2.088;2022-07-24T00:40:26;22.20;63.20
17080;DHT22;8655;57.106;-2.088;2022-07-24T00:42:52;22.20;63.30
17080;DHT22;8655;57.106;-2.088;2022-07-24T00:45:18;22.10;63.20
17080;DHT22;8655;57.106;-2.088;2022-07-24T00:47:44;22.20;63.30
17080;DHT22;8655;57.106;-2.088;2022-07-24T00:50:10;22.10;63.20
17080;DHT22;8655;57.106;-2.088;2022-07-24T00:52:36;22.20;63.30
17080;DHT22;8655;57.106;-2.088;2022-07-24T00:55:03;22.20;63.30
17080;DHT22;8655;57.106;-2.088;2022-07-24T00:57:30;22.20;63.30
17080;DHT22;8655;57.106;-2.088;2022-07-24T00:59:56;22.10;63.20
17080;DHT22;8655;57.106;-2.088;2022-07-24T01:02:22;22.20;64.00
17080;DHT22;8655;57.106;-2.088;2022-07-24T01:04:48;22.20;63.30
17080;DHT22;8655;57.106;-2.088;2022-07-24T01:07:14;22.20;63.30
17080;DHT22;8655;57.106;-2.088;2022-07-24T01:09:42;22.20;63.30
17080;DHT22;8655;57.106;-2.088;2022-07-24T01:12:08;22.20;63.30
17080;DHT22;8655;57.106;-2.088;2022-07-24T01:14:34;22.10;63.20
17080;DHT22;8655;57.106;-2.088;2022-07-24T01:17:00;22.10;63.20
17080;DHT22;8655;57.106;-2.088;2022-07-24T01:19:26;22.10;63.20
17080;DHT22;8655;57.106;-2.088;2022-07-24T01:21:53;22.10;63.30
17080;DHT22;8655;57.106;-2.088;2022-07-24T01:24:20;22.10;63.30
17080;DHT22;8655;57.106;-2.088;2022-07-24T01:26:47;22.10;63.30
17080;DHT22;8655;57.106;-2.088;2022-07-24T01:29:14;22.10;63.30
17080;DHT22;8655;57.106;-2.088;2022-07-24T01:31:40;22.20;63.40
17080;DHT22;8655;57.106;-2.088;2022-07-24T01:34:06;22.20;63.40
17080;DHT22;8655;57.106;-2.088;2022-07-24T01:36:32;22.20;63.40
17080;DHT22;8655;57.106;-2.088;2022-07-24T01:38:58;22.20;63.50
17080;DHT22;8655;57.106;-2.088;2022-07-24T01:41:24;22.20;63.50
17080;DHT22;8655;57.106;-2.088;2022-07-24T01:43:50;22.20;63.50
17080;DHT22;8655;57.106;-2.088;2022-07-24T01:46:15;22.20;63.50
17080;DHT22;8655;57.106;-2.088;2022-07-24T01:48:42;22.20;63.60
17080;DHT22;8655;57.106;-2.088;2022-07-24T01:51:08;22.20;63.60
17080;DHT22;8655;57.106;-2.088;2022-07-24T01:53:34;22.10;63.40
17080;DHT22;8655;57.106;-2.088;2022-07-24T01:56:00;22.10;63.50
17080;DHT22;8655;57.106;-2.088;2022-07-24T01:58:26;22.20;63.60
17080;DHT22;8655;57.106;-2.088;2022-07-24T02:00:52;22.10;63.50
17080;DHT22;8655;57.106;-2.088;2022-07-24T02:03:19;22.20;63.60
17080;DHT22;8655;57.106;-2.088;2022-07-24T02:05:45;22.10;63.50
17080;DHT22;8655;57.106;-2.088;2022-07-24T02:08:11;22.10;63.50
17080;DHT22;8655;57.106;-2.088;2022-07-24T02:10:37;22.20;63.60
17080;DHT22;8655;57.106;-2.088;2022-07-24T02:13:03;22.10;63.50
17080;DHT22;8655;57.106;-2.088;2022-07-24T02:15:29;22.10;63.50
17080;DHT22;8655;57.106;-2.088;2022-07-24T02:17:57;22.10;63.50
17080;DHT22;8655;57.106;-2.088;2022-07-24T02:20:24;22.10;63.50
17080;DHT22;8655;57.106;-2.088;2022-07-24T02:22:50;22.20;63.70
17080;DHT22;8655;57.106;-2.088;2022-07-24T02:25:16;22.10;63.50
17080;DHT22;8655;57.106;-2.088;2022-07-24T02:27:42;22.10;63.50
17080;DHT22;8655;57.106;-2.088;2022-07-24T02:30:14;22.10;63.60
17080;DHT22;8655;57.106;-2.088;2022-07-24T02:32:40;22.10;63.60
17080;DHT22;8655;57.106;-2.088;2022-07-24T02:35:07;22.10;63.60
17080;DHT22;8655;57.106;-2.088;2022-07-24T02:37:39;22.10;63.60
17080;DHT22;8655;57.106;-2.088;2022-07-24T02:40:08;22.10;63.60
17080;DHT22;8655;57.106;-2.088;2022-07-24T02:42:34;22.10;63.60
17080;DHT22;8655;57.106;-2.088;2022-07-24T02:45:01;22.10;63.60
17080;DHT22;8655;57.106;-2.088;2022-07-24T02:47:27;22.10;63.60
17080;DHT22;8655;57.106;-2.088;2022-07-24T02:49:53;22.10;63.60
17080;DHT22;8655;57.106;-2.088;2022-07-24T02:52:19;22.10;63.60
17080;DHT22;8655;57.106;-2.088;2022-07-24T02:54:44;22.10;63.70
17080;DHT22;8655;57.106;-2.088;2022-07-24T02:59:52;22.10;63.70
17080;DHT22;8655;57.106;-2.088;2022-07-24T03:02:18;22.10;63.70
17080;DHT22;8655;57.106;-2.088;2022-07-24T03:04:44;22.10;63.70
17080;DHT22;8655;57.106;-2.088;2022-07-24T03:07:09;22.10;63.70
17080;DHT22;8655;57.106;-2.088;2022-07-24T03:09:35;22.10;63.70
17080;DHT22;8655;57.106;-2.088;2022-07-24T03:12:01;22.10;63.80
17080;DHT22;8655;57.106;-2.088;2022-07-24T03:14:27;22.10;63.80
17080;DHT22;8655;57.106;-2.088;2022-07-24T03:16:52;22.10;63.80
17080;DHT22;8655;57.106;-2.088;2022-07-24T03:19:18;22.10;63.80
17080;DHT22;8655;57.106;-2.088;2022-07-24T03:21:44;22.10;63.80
17080;DHT22;8655;57.106;-2.088;2022-07-24T03:24:09;22.10;63.80
17080;DHT22;8655;57.106;-2.088;2022-07-24T03:26:35;22.10;63.80
17080;DHT22;8655;57.106;-2.088;2022-07-24T03:29:01;22.10;63.90
17080;DHT22;8655;57.106;-2.088;2022-07-24T03:31:26;22.10;63.90
17080;DHT22;8655;57.106;-2.088;2022-07-24T03:33:52;22.10;63.90
17080;DHT22;8655;57.106;-2.088;2022-07-24T03:36:18;22.10;63.90
17080;DHT22;8655;57.106;-2.088;2022-07-24T03:38:43;22.10;63.90
17080;DHT22;8655;57.106;-2.088;2022-07-24T03:41:09;22.10;63.90
17080;DHT22;8655;57.106;-2.088;2022-07-24T03:43:35;22.10;63.90
17080;DHT22;8655;57.106;-2.088;2022-07-24T03:46:00;22.10;64.00
17080;DHT22;8655;57.106;-2.088;2022-07-24T03:48:26;22.10;64.00
17080;DHT22;8655;57.106;-2.088;2022-07-24T03:50:52;22.10;64.00
17080;DHT22;8655;57.106;-2.088;2022-07-24T03:53:17;22.10;64.00
17080;DHT22;8655;57.106;-2.088;2022-07-24T03:55:43;22.10;64.10
17080;DHT22;8655;57.106;-2.088;2022-07-24T03:58:09;22.10;64.00
17080;DHT22;8655;57.106;-2.088;2022-07-24T04:00:35;22.10;64.10
17080;DHT22;8655;57.106;-2.088;2022-07-24T04:03:00;22.10;64.10
17080;DHT22;8655;57.106;-2.088;2022-07-24T04:05:26;22.10;64.10
17080;DHT22;8655;57.106;-2.088;2022-07-24T04:07:52;22.10;64.10
17080;DHT22;8655;57.106;-2.088;2022-07-24T04:10:17;22.10;64.10
17080;DHT22;8655;57.106;-2.088;2022-07-24T04:12:43;22.10;64.10
17080;DHT22;8655;57.106;-2.088;2022-07-24T04:15:09;22.10;64.10
17080;DHT22;8655;57.106;-2.088;2022-07-24T04:17:38;22.10;64.10
17080;DHT22;8655;57.106;-2.088;2022-07-24T04:20:04;22.10;64.10
17080;DHT22;8655;57.106;-2.088;2022-07-24T04:22:30;22.10;64.10
17080;DHT22;8655;57.106;-2.088;2022-07-24T04:24:56;22.10;64.10
17080;DHT22;8655;57.106;-2.088;2022-07-24T04:27:22;22.10;64.10
17080;DHT22;8655;57.106;-2.088;2022-07-24T04:29:47;22.10;64.10
17080;DHT22;8655;57.106;-2.088;2022-07-24T04:32:13;22.10;64.10
17080;DHT22;8655;57.106;-2.088;2022-07-24T04:34:39;22.10;64.10
17080;DHT22;8655;57.106;-2.088;2022-07-24T04:37:05;22.10;64.20
17080;DHT22;8655;57.106;-2.088;2022-07-24T04:39:30;22.10;64.20
17080;DHT22;8655;57.106;-2.088;2022-07-24T04:41:56;22.10;64.20
17080;DHT22;8655;57.106;-2.088;2022-07-24T04:44:22;22.10;64.20
17080;DHT22;8655;57.106;-2.088;2022-07-24T04:46:47;22.10;64.20
17080;DHT22;8655;57.106;-2.088;2022-07-24T04:49:13;22.10;64.20
17080;DHT22;8655;57.106;-2.088;2022-07-24T04:51:39;22.10;64.20
17080;DHT22;8655;57.106;-2.088;2022-07-24T04:54:04;22.10;64.30
17080;DHT22;8655;57.106;-2.088;2022-07-24T04:56:30;22.10;64.30
17080;DHT22;8655;57.106;-2.088;2022-07-24T04:58:58;22.10;64.20
17080;DHT22;8655;57.106;-2.088;2022-07-24T05:01:24;22.10;64.30
17080;DHT22;8655;57.106;-2.088;2022-07-24T05:03:50;22.10;64.30
17080;DHT22;8655;57.106;-2.088;2022-07-24T05:06:16;22.10;64.30
17080;DHT22;8655;57.106;-2.088;2022-07-24T05:08:42;22.10;64.30
17080;DHT22;8655;57.106;-2.088;2022-07-24T05:11:08;22.10;64.30
17080;DHT22;8655;57.106;-2.088;2022-07-24T05:13:33;22.10;64.30
17080;DHT22;8655;57.106;-2.088;2022-07-24T05:15:59;22.10;64.30
17080;DHT22;8655;57.106;-2.088;2022-07-24T05:18:25;22.10;64.30
17080;DHT22;8655;57.106;-2.088;2022-07-24T05:20:50;22.10;64.30
17080;DHT22;8655;57.106;-2.088;2022-07-24T05:23:16;22.10;64.40
17080;DHT22;8655;57.106;-2.088;2022-07-24T05:25:42;22.10;64.40
17080;DHT22;8655;57.106;-2.088;2022-07-24T05:28:08;22.10;64.40
17080;DHT22;8655;57.106;-2.088;2022-07-24T05:30:33;22.10;64.40
17080;DHT22;8655;57.106;-2.088;2022-07-24T05:32:59;22.10;64.40
17080;DHT22;8655;57.106;-2.088;2022-07-24T05:35:25;22.10;64.40
17080;DHT22;8655;57.106;-2.088;2022-07-24T05:37:50;22.10;64.40
17080;DHT22;8655;57.106;-2.088;2022-07-24T05:40:16;22.10;64.40
17080;DHT22;8655;57.106;-2.088;2022-07-24T05:42:42;22.10;64.40
17080;DHT22;8655;57.106;-2.088;2022-07-24T05:45:08;22.10;64.40
17080;DHT22;8655;57.106;-2.088;2022-07-24T05:47:38;22.10;65.10
17080;DHT22;8655;57.106;-2.088;2022-07-24T05:50:09;22.10;64.50
17080;DHT22;8655;57.106;-2.088;2022-07-24T05:52:36;22.10;64.50
17080;DHT22;8655;57.106;-2.088;2022-07-24T05:55:03;22.10;64.50
17080;DHT22;8655;57.106;-2.088;2022-07-24T05:57:29;22.10;64.50
17080;DHT22;8655;57.106;-2.088;2022-07-24T05:59:55;22.10;64.50
17080;DHT22;8655;57.106;-2.088;2022-07-24T06:02:20;22.10;64.50
17080;DHT22;8655;57.106;-2.088;2022-07-24T06:04:46;22.10;64.50
17080;DHT22;8655;57.106;-2.088;2022-07-24T06:07:12;22.10;64.50
17080;DHT22;8655;57.106;-2.088;2022-07-24T06:09:38;22.10;64.50
17080;DHT22;8655;57.106;-2.088;2022-07-24T06:12:04;22.10;64.50
17080;DHT22;8655;57.106;-2.088;2022-07-24T06:14:31;22.10;64.50
17080;DHT22;8655;57.106;-2.088;2022-07-24T06:16:57;22.10;64.60
17080;DHT22;8655;57.106;-2.088;2022-07-24T06:19:24;22.10;64.60
17080;DHT22;8655;57.106;-2.088;2022-07-24T06:21:49;22.10;64.60
17080;DHT22;8655;57.106;-2.088;2022-07-24T06:24:15;22.10;64.60
17080;DHT22;8655;57.106;-2.088;2022-07-24T06:26:41;22.10;64.60
17080;DHT22;8655;57.106;-2.088;2022-07-24T06:29:07;22.10;65.00
17080;DHT22;8655;57.106;-2.088;2022-07-24T06:31:32;22.10;64.60
17080;DHT22;8655;57.106;-2.088;2022-07-24T06:33:58;22.10;64.70
17080;DHT22;8655;57.106;-2.088;2022-07-24T06:36:24;22.10;64.60
17080;DHT22;8655;57.106;-2.088;2022-07-24T06:38:50;22.10;64.70
17080;DHT22;8655;57.106;-2.088;2022-07-24T06:41:16;22.20;64.80
17080;DHT22;8655;57.106;-2.088;2022-07-24T06:43:42;22.10;64.60
17080;DHT22;8655;57.106;-2.088;2022-07-24T06:46:07;22.10;64.70
17080;DHT22;8655;57.106;-2.088;2022-07-24T06:48:33;22.10;64.70
17080;DHT22;8655;57.106;-2.088;2022-07-24T06:50:59;22.10;64.70
17080;DHT22;8655;57.106;-2.088;2022-07-24T06:53:25;22.10;64.70
17080;DHT22;8655;57.106;-2.088;2022-07-24T06:55:50;22.10;64.70
17080;DHT22;8655;57.106;-2.088;2022-07-24T06:58:19;22.10;64.70
17080;DHT22;8655;57.106;-2.088;2022-07-24T07:00:46;22.10;64.70
17080;DHT22;8655;57.106;-2.088;2022-07-24T07:03:12;22.10;65.40
17080;DHT22;8655;57.106;-2.088;2022-07-24T07:05:38;22.10;64.70
17080;DHT22;8655;57.106;-2.088;2022-07-24T07:08:03;22.10;64.70
17080;DHT22;8655;57.106;-2.088;2022-07-24T07:10:29;22.10;65.40
17080;DHT22;8655;57.106;-2.088;2022-07-24T07:12:55;22.10;64.70
17080;DHT22;8655;57.106;-2.088;2022-07-24T07:15:21;22.20;64.80
17080;DHT22;8655;57.106;-2.088;2022-07-24T07:17:47;22.10;64.80
17080;DHT22;8655;57.106;-2.088;2022-07-24T07:20:13;22.20;64.80
17080;DHT22;8655;57.106;-2.088;2022-07-24T07:22:40;22.10;64.70
17080;DHT22;8655;57.106;-2.088;2022-07-24T07:25:07;22.20;64.80
17080;DHT22;8655;57.106;-2.088;2022-07-24T07:27:33;22.20;64.80
17080;DHT22;8655;57.106;-2.088;2022-07-24T07:29:59;22.10;65.40
17080;DHT22;8655;57.106;-2.088;2022-07-24T07:32:24;22.20;64.80
17080;DHT22;8655;57.106;-2.088;2022-07-24T07:34:50;22.20;64.80
17080;DHT22;8655;57.106;-2.088;2022-07-24T07:37:16;22.10;64.70
17080;DHT22;8655;57.106;-2.088;2022-07-24T07:39:41;22.20;64.80
17080;DHT22;8655;57.106;-2.088;2022-07-24T07:42:07;22.20;64.80
17080;DHT22;8655;57.106;-2.088;2022-07-24T07:44:33;22.10;64.70
17080;DHT22;8655;57.106;-2.088;2022-07-24T07:46:59;22.20;64.80
17080;DHT22;8655;57.106;-2.088;2022-07-24T07:49:24;22.20;64.80
17080;DHT22;8655;57.106;-2.088;2022-07-24T07:51:50;22.20;64.80
17080;DHT22;8655;57.106;-2.088;2022-07-24T07:54:18;22.20;64.80
17080;DHT22;8655;57.106;-2.088;2022-07-24T07:56:44;22.20;64.90
17080;DHT22;8655;57.106;-2.088;2022-07-24T07:59:09;22.10;64.80
17080;DHT22;8655;57.106;-2.088;2022-07-24T08:01:35;22.10;64.80
17080;DHT22;8655;57.106;-2.088;2022-07-24T08:04:02;22.20;64.90
17080;DHT22;8655;57.106;-2.088;2022-07-24T08:06:28;22.20;64.90
17080;DHT22;8655;57.106;-2.088;2022-07-24T08:08:54;22.20;64.90
17080;DHT22;8655;57.106;-2.088;2022-07-24T08:11:20;22.20;64.90
17080;DHT22;8655;57.106;-2.088;2022-07-24T08:13:45;22.20;65.00
17080;DHT22;8655;57.106;-2.088;2022-07-24T08:16:11;22.20;65.00
17080;DHT22;8655;57.106;-2.088;2022-07-24T08:18:37;22.20;65.00
17080;DHT22;8655;57.106;-2.088;2022-07-24T08:21:03;22.20;65.00
17080;DHT22;8655;57.106;-2.088;2022-07-24T08:23:29;22.20;65.00
17080;DHT22;8655;57.106;-2.088;2022-07-24T08:25:55;22.20;65.00
17080;DHT22;8655;57.106;-2.088;2022-07-24T08:28:21;22.20;65.00
17080;DHT22;8655;57.106;-2.088;2022-07-24T08:30:51;22.20;65.00
17080;DHT22;8655;57.106;-2.088;2022-07-24T08:33:17;22.20;65.10
17080;DHT22;8655;57.106;-2.088;2022-07-24T08:35:43;22.30;65.20
17080;DHT22;8655;57.106;-2.088;2022-07-24T08:38:09;22.30;65.20
17080;DHT22;8655;57.106;-2.088;2022-07-24T08:40:38;22.20;65.10
17080;DHT22;8655;57.106;-2.088;2022-07-24T08:43:06;22.30;65.30
17080;DHT22;8655;57.106;-2.088;2022-07-24T08:45:38;22.30;65.30
17080;DHT22;8655;57.106;-2.088;2022-07-24T08:48:06;22.30;65.30
17080;DHT22;8655;57.106;-2.088;2022-07-24T08:50:33;22.30;65.40
17080;DHT22;8655;57.106;-2.088;2022-07-24T08:52:59;22.20;65.30
17080;DHT22;8655;57.106;-2.088;2022-07-24T08:55:27;22.30;65.40
17080;DHT22;8655;57.106;-2.088;2022-07-24T08:57:58;22.20;65.30
17080;DHT22;8655;57.106;-2.088;2022-07-24T09:00:26;22.20;65.30
17080;DHT22;8655;57.106;-2.088;2022-07-24T09:02:52;22.30;65.40
17080;DHT22;8655;57.106;-2.088;2022-07-24T09:05:18;22.30;65.40
17080;DHT22;8655;57.106;-2.088;2022-07-24T09:07:43;22.30;65.40
17080;DHT22;8655;57.106;-2.088;2022-07-24T09:10:15;22.30;65.40
17080;DHT22;8655;57.106;-2.088;2022-07-24T09:12:46;22.30;65.50
17080;DHT22;8655;57.106;-2.088;2022-07-24T09:15:20;22.30;65.40
17080;DHT22;8655;57.106;-2.088;2022-07-24T09:17:56;22.30;65.40
17080;DHT22;8655;57.106;-2.088;2022-07-24T09:20:24;22.30;65.50
17080;DHT22;8655;57.106;-2.088;2022-07-24T09:22:50;22.30;65.50
17080;DHT22;8655;57.106;-2.088;2022-07-24T09:25:17;22.30;65.50
17080;DHT22;8655;57.106;-2.088;2022-07-24T09:27:52;22.30;65.50
17080;DHT22;8655;57.106;-2.088;2022-07-24T09:30:30;22.30;65.50
17080;DHT22;8655;57.106;-2.088;2022-07-24T09:33:03;22.40;65.70
17080;DHT22;8655;57.106;-2.088;2022-07-24T09:35:34;22.40;65.70
17080;DHT22;8655;57.106;-2.088;2022-07-24T09:38:02;22.30;65.60
17080;DHT22;8655;57.106;-2.088;2022-07-24T09:40:42;22.40;65.70
17080;DHT22;8655;57.106;-2.088;2022-07-24T09:46:10;22.40;65.80
17080;DHT22;8655;57.106;-2.088;2022-07-24T09:48:40;22.40;65.70
17080;DHT22;8655;57.106;-2.088;2022-07-24T09:51:16;22.40;65.70
17080;DHT22;8655;57.106;-2.088;2022-07-24T09:53:44;22.40;65.80
17080;DHT22;8655;57.106;-2.088;2022-07-24T09:56:15;22.40;65.80
17080;DHT22;8655;57.106;-2.088;2022-07-24T09:58:49;22.40;65.80
17080;DHT22;8655;57.106;-2.088;2022-07-24T10:01:18;22.40;65.90
17080;DHT22;8655;57.106;-2.088;2022-07-24T10:03:46;22.50;65.90
17080;DHT22;8655;57.106;-2.088;2022-07-24T10:06:14;22.50;66.00
17080;DHT22;8655;57.106;-2.088;2022-07-24T10:08:44;22.40;65.90
17080;DHT22;8655;57.106;-2.088;2022-07-24T10:11:11;22.50;66.10
17080;DHT22;8655;57.106;-2.088;2022-07-24T10:13:38;22.50;66.00
17080;DHT22;8655;57.106;-2.088;2022-07-24T10:21:33;22.50;66.10
17080;DHT22;8655;57.106;-2.088;2022-07-24T10:26:44;22.50;66.10
17080;DHT22;8655;57.106;-2.088;2022-07-24T10:29:18;22.50;66.10
17080;DHT22;8655;57.106;-2.088;2022-07-24T10:31:47;22.50;66.20
17080;DHT22;8655;57.106;-2.088;2022-07-24T10:39:37;22.60;66.30
17080;DHT22;8655;57.106;-2.088;2022-07-24T10:42:06;22.60;66.40
17080;DHT22;8655;57.106;-2.088;2022-07-24T10:44:32;22.60;66.30
17080;DHT22;8655;57.106;-2.088;2022-07-24T10:47:00;22.60;66.30
17080;DHT22;8655;57.106;-2.088;2022-07-24T10:52:04;22.70;66.50
17080;DHT22;8655;57.106;-2.088;2022-07-24T10:54:30;22.70;66.50
17080;DHT22;8655;57.106;-2.088;2022-07-24T10:56:56;22.60;66.40
17080;DHT22;8655;57.106;-2.088;2022-07-24T10:59:33;22.70;66.40
17080;DHT22;8655;57.106;-2.088;2022-07-24T11:02:29;22.70;66.50
17080;DHT22;8655;57.106;-2.088;2022-07-24T11:05:23;22.70;66.50
17080;DHT22;8655;57.106;-2.088;2022-07-24T11:08:12;22.70;66.40
17080;DHT22;8655;57.106;-2.088;2022-07-24T11:10:50;22.70;66.50
17080;DHT22;8655;57.106;-2.088;2022-07-24T11:21:40;22.80;66.60
17080;DHT22;8655;57.106;-2.088;2022-07-24T11:29:23;22.80;66.60
17080;DHT22;8655;57.106;-2.088;2022-07-24T11:34:26;22.80;66.60
17080;DHT22;8655;57.106;-2.088;2022-07-24T11:36:53;22.80;66.60
17080;DHT22;8655;57.106;-2.088;2022-07-24T11:39:25;22.80;66.60
17080;DHT22;8655;57.106;-2.088;2022-07-24T11:41:56;22.80;66.60
17080;DHT22;8655;57.106;-2.088;2022-07-24T11:46:57;22.90;66.70
17080;DHT22;8655;57.106;-2.088;2022-07-24T11:49:24;22.80;66.70
17080;DHT22;8655;57.106;-2.088;2022-07-24T11:51:51;22.90;66.70
17080;DHT22;8655;57.106;-2.088;2022-07-24T11:54:23;22.90;66.70
17080;DHT22;8655;57.106;-2.088;2022-07-24T11:56:50;22.90;66.70
17080;DHT22;8655;57.106;-2.088;2022-07-24T11:59:26;22.90;66.70
17080;DHT22;8655;57.106;-2.088;2022-07-24T12:02:06;22.90;66.70
17080;DHT22;8655;57.106;-2.088;2022-07-24T12:04:32;22.90;66.70
17080;DHT22;8655;57.106;-2.088;2022-07-24T12:06:59;22.90;66.70
17080;DHT22;8655;57.106;-2.088;2022-07-24T12:09:26;22.90;66.80
17080;DHT22;8655;57.106;-2.088;2022-07-24T12:11:52;22.90;66.80
17080;DHT22;8655;57.106;-2.088;2022-07-24T12:14:19;22.90;66.80
17080;DHT22;8655;57.106;-2.088;2022-07-24T12:16:53;23.00;66.90
17080;DHT22;8655;57.106;-2.088;2022-07-24T12:19:24;23.00;66.90
17080;DHT22;8655;57.106;-2.088;2022-07-24T12:21:54;23.00;66.90
17080;DHT22;8655;57.106;-2.088;2022-07-24T12:24:21;23.00;66.90
17080;DHT22;8655;57.106;-2.088;2022-07-24T12:26:57;23.00;66.90
17080;DHT22;8655;57.106;-2.088;2022-07-24T12:29:25;23.00;66.90
17080;DHT22;8655;57.106;-2.088;2022-07-24T12:32:16;23.00;67.60
17080;DHT22;8655;57.106;-2.088;2022-07-24T12:34:43;23.00;66.90
17080;DHT22;8655;57.106;-2.088;2022-07-24T12:37:20;23.00;66.90
17080;DHT22;8655;57.106;-2.088;2022-07-24T12:39:51;23.00;66.90
17080;DHT22;8655;57.106;-2.088;2022-07-24T12:42:17;23.00;66.90
17080;DHT22;8655;57.106;-2.088;2022-07-24T12:44:44;23.00;66.90
17080;DHT22;8655;57.106;-2.088;2022-07-24T12:47:13;23.10;67.70
17080;DHT22;8655;57.106;-2.088;2022-07-24T12:49:44;23.10;67.00
17080;DHT22;8655;57.106;-2.088;2022-07-24T12:52:21;23.10;67.00
17080;DHT22;8655;57.106;-2.088;2022-07-24T12:54:49;23.10;67.00
17080;DHT22;8655;57.106;-2.088;2022-07-24T12:57:16;23.10;67.00
17080;DHT22;8655;57.106;-2.088;2022-07-24T12:59:46;23.10;67.00
17080;DHT22;8655;57.106;-2.088;2022-07-24T13:02:15;23.10;67.00
17080;DHT22;8655;57.106;-2.088;2022-07-24T13:04:49;23.10;66.90
17080;DHT22;8655;57.106;-2.088;2022-07-24T13:07:19;23.10;66.90
17080;DHT22;8655;57.106;-2.088;2022-07-24T13:09:45;23.20;67.00
17080;DHT22;8655;57.106;-2.088;2022-07-24T13:12:12;23.20;67.00
17080;DHT22;8655;57.106;-2.088;2022-07-24T13:14:38;23.20;67.00
17080;DHT22;8655;57.106;-2.088;2022-07-24T13:17:07;23.20;67.00
17080;DHT22;8655;57.106;-2.088;2022-07-24T13:19:43;23.20;67.00
17080;DHT22;8655;57.106;-2.088;2022-07-24T13:22:10;23.20;67.10
17080;DHT22;8655;57.106;-2.088;2022-07-24T13:24:37;23.20;67.10
17080;DHT22;8655;57.106;-2.088;2022-07-24T13:27:06;23.20;67.10
17080;DHT22;8655;57.106;-2.088;2022-07-24T13:29:32;23.20;67.10
17080;DHT22;8655;57.106;-2.088;2022-07-24T13:32:00;23.20;67.10
17080;DHT22;8655;57.106;-2.088;2022-07-24T13:34:27;23.20;67.10
17080;DHT22;8655;57.106;-2.088;2022-07-24T13:36:54;23.20;67.10
17080;DHT22;8655;57.106;-2.088;2022-07-24T13:39:21;23.30;67.20
17080;DHT22;8655;57.106;-2.088;2022-07-24T13:41:46;23.20;67.10
17080;DHT22;8655;57.106;-2.088;2022-07-24T13:44:12;23.30;67.20
17080;DHT22;8655;57.106;-2.088;2022-07-24T13:46:38;23.30;67.20
17080;DHT22;8655;57.106;-2.088;2022-07-24T13:49:05;23.30;67.20
17080;DHT22;8655;57.106;-2.088;2022-07-24T13:51:31;23.30;67.20
17080;DHT22;8655;57.106;-2.088;2022-07-24T13:53:57;23.30;67.20
17080;DHT22;8655;57.106;-2.088;2022-07-24T13:56:25;23.30;67.20
17080;DHT22;8655;57.106;-2.088;2022-07-24T13:58:52;23.30;67.20
17080;DHT22;8655;57.106;-2.088;2022-07-24T14:01:18;23.30;67.20
17080;DHT22;8655;57.106;-2.088;2022-07-24T14:03:45;23.30;67.20
17080;DHT22;8655;57.106;-2.088;2022-07-24T14:06:11;23.30;67.30
17080;DHT22;8655;57.106;-2.088;2022-07-24T14:08:38;23.30;67.30
17080;DHT22;8655;57.106;-2.088;2022-07-24T14:11:05;23.40;67.30
17080;DHT22;8655;57.106;-2.088;2022-07-24T14:13:31;23.30;67.30
17080;DHT22;8655;57.106;-2.088;2022-07-24T14:15:57;23.40;67.30
17080;DHT22;8655;57.106;-2.088;2022-07-24T14:18:23;23.40;67.30
17080;DHT22;8655;57.106;-2.088;2022-07-24T14:20:49;23.40;67.40
17080;DHT22;8655;57.106;-2.088;2022-07-24T14:23:15;23.40;67.40
17080;DHT22;8655;57.106;-2.088;2022-07-24T14:25:41;23.40;67.40
17080;DHT22;8655;57.106;-2.088;2022-07-24T14:28:07;23.40;67.40
17080;DHT22;8655;57.106;-2.088;2022-07-24T14:30:33;23.40;67.40
17080;DHT22;8655;57.106;-2.088;2022-07-24T14:32:59;23.40;67.40
17080;DHT22;8655;57.106;-2.088;2022-07-24T14:35:25;23.40;67.40
17080;DHT22;8655;57.106;-2.088;2022-07-24T14:37:52;23.40;67.40
17080;DHT22;8655;57.106;-2.088;2022-07-24T14:40:18;23.40;67.40
17080;DHT22;8655;57.106;-2.088;2022-07-24T14:42:44;23.40;67.40
17080;DHT22;8655;57.106;-2.088;2022-07-24T14:45:10;23.40;67.40
17080;DHT22;8655;57.106;-2.088;2022-07-24T14:47:35;23.40;67.40
17080;DHT22;8655;57.106;-2.088;2022-07-24T14:50:05;23.40;67.40
17080;DHT22;8655;57.106;-2.088;2022-07-24T14:52:31;23.50;67.50
17080;DHT22;8655;57.106;-2.088;2022-07-24T14:54:57;23.50;67.50
17080;DHT22;8655;57.106;-2.088;2022-07-24T14:57:25;23.50;67.50
17080;DHT22;8655;57.106;-2.088;2022-07-24T14:59:50;23.50;67.50
17080;DHT22;8655;57.106;-2.088;2022-07-24T15:02:16;23.50;67.50
17080;DHT22;8655;57.106;-2.088;2022-07-24T15:04:42;23.50;67.50
17080;DHT22;8655;57.106;-2.088;2022-07-24T15:07:08;23.50;67.50
17080;DHT22;8655;57.106;-2.088;2022-07-24T15:09:34;23.50;67.60
17080;DHT22;8655;57.106;-2.088;2022-07-24T15:11:59;23.50;67.50
17080;DHT22;8655;57.106;-2.088;2022-07-24T15:14:25;23.50;67.60
17080;DHT22;8655;57.106;-2.088;2022-07-24T15:16:51;23.50;67.60
17080;DHT22;8655;57.106;-2.088;2022-07-24T15:19:17;23.50;67.50
17080;DHT22;8655;57.106;-2.088;2022-07-24T15:21:43;23.50;67.60
17080;DHT22;8655;57.106;-2.088;2022-07-24T15:24:09;23.60;67.70
17080;DHT22;8655;57.106;-2.088;2022-07-24T15:26:35;23.50;67.60
17080;DHT22;8655;57.106;-2.088;2022-07-24T15:29:00;23.60;67.70
17080;DHT22;8655;57.106;-2.088;2022-07-24T15:31:26;23.60;67.70
17080;DHT22;8655;57.106;-2.088;2022-07-24T15:33:52;23.60;67.70
17080;DHT22;8655;57.106;-2.088;2022-07-24T15:36:18;23.60;67.70
17080;DHT22;8655;57.106;-2.088;2022-07-24T15:38:43;23.60;67.70
17080;DHT22;8655;57.106;-2.088;2022-07-24T15:41:09;23.60;67.70
17080;DHT22;8655;57.106;-2.088;2022-07-24T15:43:35;23.60;67.70
17080;DHT22;8655;57.106;-2.088;2022-07-24T15:46:01;23.60;67.70
17080;DHT22;8655;57.106;-2.088;2022-07-24T15:48:27;23.60;67.70
17080;DHT22;8655;57.106;-2.088;2022-07-24T15:50:53;23.60;67.70
17080;DHT22;8655;57.106;-2.088;2022-07-24T15:53:18;23.60;67.70
17080;DHT22;8655;57.106;-2.088;2022-07-24T15:55:44;23.60;67.70
17080;DHT22;8655;57.106;-2.088;2022-07-24T15:58:10;23.60;68.20
17080;DHT22;8655;57.106;-2.088;2022-07-24T16:00:36;23.60;67.70
17080;DHT22;8655;57.106;-2.088;2022-07-24T16:03:01;23.70;67.80
17080;DHT22;8655;57.106;-2.088;2022-07-24T16:05:27;23.70;67.70
17080;DHT22;8655;57.106;-2.088;2022-07-24T16:07:54;23.60;67.70
17080;DHT22;8655;57.106;-2.088;2022-07-24T16:10:20;23.70;67.70